Terminal Aerodrome Forecast
Issued by NWS North Platte, NE

Home | Current Version | Previous Version | Text Only | Print | Product List | Glossary On
Versions: 1 2 3 4 5 6 7 8 9 10 11 12 13 14 15 16 17 18 19 20 21 22 23 24 25 26
000
FTUS43 KLBF 231732
TAFLBF
TAF
KLBF 231732Z 2318/2418 02007KT P6SM FEW250
     FM240400 08008KT P6SM BKN010
     FM240500 09007KT P6SM OVC005
     FM241100 08006KT 1SM -SN OVC003
     FM241400 05005KT 1/2SM SN OVC003
     FM241700 32006KT 2SM -SN OVC010=

USA.gov is the U.S. government's official web portal to all federal, state and local government web resources and services.